Hanseatic Scout — V2BM2 — position and weather

sailwx.info

Track history (hours):
 
Tides and Currents Weather Stations Pressure Air Temp Water Temp Dewpoint Dewpoint Depression Visibility Wind Speed Wind Dir Waves Ship Positions

Hanseatic Scout

Last reported at 2015-Mar-03 02:26 UTC. Time now 2015-Mar-03 03:16 UTC.
Position N 53°45' W 000°16'.

Length 89 m; draft 6.3 m.

Type: Ship (hazmat cat C). MMSI: 304867000.

Date/timePositionNaut miles runAvg speedWind from/ knotsBaromVisibWave heightAir tempDewpointWater temp
2015-Mar-03 02:26N 53°45' W 000°16'0 0.0
2015-Mar-03 01:32N 53°45' W 000°16'0 0.0
2015-Mar-03 00:32N 53°45' W 000°16'0 0.0
2015-Mar-02 23:32N 53°45' W 000°16'0 0.0
2015-Mar-02 22:32N 53°45' W 000°16'0 0.0
2015-Mar-02 21:32N 53°45' W 000°16'0 0.0
2015-Mar-02 20:33N 53°45' W 000°16'0 0.2
2015-Mar-02 19:32N 53°45' W 000°16'0 0.2
2015-Mar-02 18:32N 53°45' W 000°16'0 0.0
2015-Mar-02 17:32N 53°45' W 000°16'0 0.0
2015-Mar-02 16:32N 53°45' W 000°16'0 0.0
2015-Mar-02 15:32N 53°45' W 000°16'0 0.0
2015-Mar-02 14:32N 53°45' W 000°16'0 0.0
2015-Mar-02 13:32N 53°45' W 000°16'0 0.0
2015-Mar-02 12:34N 53°45' W 000°16'0 0.0
2015-Mar-02 11:33N 53°45' W 000°16'0 0.0
2015-Mar-02 10:34N 53°45' W 000°16'0 0.0
2015-Mar-02 09:33N 53°45' W 000°16'0 0.0
2015-Mar-02 08:34N 53°45' W 000°16'0 0.0
2015-Mar-02 07:34N 53°45' W 000°16'0 0.0
2015-Mar-02 06:33N 53°45' W 000°16'0 0.0
2015-Mar-02 05:33N 53°45' W 000°16'0 0.0
2015-Mar-02 04:34N 53°45' W 000°16'0 0.0
2015-Mar-02 03:34N 53°45' W 000°16'0 0.0
2015-Mar-02 02:34N 53°45' W 000°16'0 0.0
2015-Mar-02 01:33N 53°45' W 000°16'0 0.0
2015-Mar-02 00:33N 53°45' W 000°16'0 0.2
2015-Mar-01 23:34N 53°44' W 000°16'5 4.6
2015-Mar-01 22:33N 53°40' W 000°13'8 8.4
2015-Mar-01 21:34N 53°36' W 000°01'8 8.1
2015-Mar-01 20:33N 53°33' E 000°12'7 7.4
2015-Mar-01 19:34N 53°33' E 000°24'4 4.0
2015-Mar-01 18:33N 53°34' E 000°31'2 2.0
2015-Mar-01 17:33N 53°33' E 000°34'2 1.9
2015-Mar-01 16:33N 53°34' E 000°31'6 5.8
2015-Mar-01 15:32N 53°34' E 000°41'147 6.4
2015-Feb-28 16:30N 54°04' E 004°45'6 5.9
2015-Feb-28 15:32N 54°05' E 004°55'6 6.2
2015-Feb-28 14:33N 54°06' E 005°05'6 6.5
2015-Feb-28 13:34N 54°07' E 005°16'7 7.3
2015-Feb-28 12:33N 54°07' E 005°29'8 8.1
2015-Feb-28 11:32N 54°08' E 005°43'9 8.8
2015-Feb-28 10:29N 54°10' E 005°58'21 9.0
2015-Feb-28 08:12N 54°12' E 006°33'6 9.5
2015-Feb-28 07:32N 54°12' E 006°44'9 9.2
2015-Feb-28 06:33N 54°12' E 006°60'9 9.0
2015-Feb-28 05:33N 54°12' E 007°15'9 8.6
2015-Feb-28 04:33N 54°12' E 007°30'8 8.3
2015-Feb-28 03:33N 54°09' E 007°42'8 8.5
2015-Feb-28 02:33N 54°05' E 007°55'9 8.9
2015-Feb-28 01:34N 54°01' E 008°09'10 9.7
2015-Feb-28 00:34N 53°59' E 008°25'1211.8
2015-Feb-27 23:33N 53°53' E 008°42'1211.7
2015-Feb-27 22:33N 53°52' E 009°02'5 4.7
2015-Feb-27 21:33N 53°54' E 009°09'6 6.3
2015-Feb-27 20:33N 53°59' E 009°16'7 7.0
2015-Feb-27 19:33N 54°06' E 009°20'8 8.2
2015-Feb-27 18:33N 54°11' E 009°30'3 2.9
2015-Feb-27 17:33N 54°12' E 009°34'6 4.6
2015-Feb-27 16:20N 54°17' E 009°39'6 7.9
2015-Feb-27 15:33N 54°21' E 009°47'7 7.2
2015-Feb-27 14:33N 54°21' E 009°59'6 5.8
2015-Feb-27 13:33N 54°22' E 010°09'5 5.4
2015-Feb-27 12:33N 54°26' E 010°14'9 8.9
2015-Feb-27 11:33N 54°32' E 010°26'10 9.6
2015-Feb-27 10:33N 54°35' E 010°42'10 9.8
2015-Feb-27 09:33N 54°36' E 010°59'1110.6
2015-Feb-27 08:33N 54°34' E 011°17'1110.8
2015-Feb-27 07:34N 54°29' E 011°33'1010.1
2015-Feb-27 06:33N 54°27' E 011°50'1010.2
2015-Feb-27 05:33N 54°27' E 012°08'9 9.3
2015-Feb-27 04:33N 54°35' E 012°14'10 9.9
2015-Feb-27 03:31N 54°41' E 012°28'30 9.9
2015-Feb-27 00:33N 54°54' E 013°14'10 9.9
2015-Feb-26 23:33N 54°57' E 013°31'10 9.9
2015-Feb-26 22:33N 55°01' E 013°47'1010.0
2015-Feb-26 21:33N 55°04' E 014°03'10 9.8
2015-Feb-26 20:33N 55°12' E 014°14'1010.0
2015-Feb-26 19:33N 55°19' E 014°26'10 9.8
2015-Feb-26 18:33N 55°27' E 014°37'1010.2
2015-Feb-26 17:33N 55°32' E 014°53'1010.0
2015-Feb-26 16:33N 55°37' E 015°08'10 9.6
2015-Feb-26 15:33N 55°41' E 015°23'1010.0
2015-Feb-26 14:30N 55°47' E 015°38'12 9.7
2015-Feb-26 13:15N 55°53' E 015°57'91 9.4
2015-Feb-26 03:31N 57°10' E 017°26'10 9.8
2015-Feb-26 02:29N 57°19' E 017°33'  
Track history (hours):
 
Tides and Currents Weather Stations Pressure Air Temp Water Temp Dewpoint Dewpoint Depression Visibility Wind Speed Wind Dir Waves Ship Positions

Hanseatic Scout

Last reported at 2015-Mar-03 02:26 UTC. Time now 2015-Mar-03 03:16 UTC.
Position N 53°45' W 000°16'.

Length 89 m; draft 6.3 m.

Type: Ship (hazmat cat C). MMSI: 304867000.

Date/timePositionNaut miles runAvg speedWind from/ knotsBaromVisibWave heightAir tempDewpointWater temp
2015-Mar-03 02:26N 53°45' W 000°16'0 0.0
2015-Mar-03 01:32N 53°45' W 000°16'0 0.0
2015-Mar-03 00:32N 53°45' W 000°16'0 0.0
2015-Mar-02 23:32N 53°45' W 000°16'0 0.0
2015-Mar-02 22:32N 53°45' W 000°16'0 0.0
2015-Mar-02 21:32N 53°45' W 000°16'0 0.0
2015-Mar-02 20:33N 53°45' W 000°16'0 0.2
2015-Mar-02 19:32N 53°45' W 000°16'0 0.2
2015-Mar-02 18:32N 53°45' W 000°16'0 0.0
2015-Mar-02 17:32N 53°45' W 000°16'0 0.0
2015-Mar-02 16:32N 53°45' W 000°16'0 0.0
2015-Mar-02 15:32N 53°45' W 000°16'0 0.0
2015-Mar-02 14:32N 53°45' W 000°16'0 0.0
2015-Mar-02 13:32N 53°45' W 000°16'0 0.0
2015-Mar-02 12:34N 53°45' W 000°16'0 0.0
2015-Mar-02 11:33N 53°45' W 000°16'0 0.0
2015-Mar-02 10:34N 53°45' W 000°16'0 0.0
2015-Mar-02 09:33N 53°45' W 000°16'0 0.0
2015-Mar-02 08:34N 53°45' W 000°16'0 0.0
2015-Mar-02 07:34N 53°45' W 000°16'0 0.0
2015-Mar-02 06:33N 53°45' W 000°16'0 0.0
2015-Mar-02 05:33N 53°45' W 000°16'0 0.0
2015-Mar-02 04:34N 53°45' W 000°16'0 0.0
2015-Mar-02 03:34N 53°45' W 000°16'0 0.0
2015-Mar-02 02:34N 53°45' W 000°16'0 0.0
2015-Mar-02 01:33N 53°45' W 000°16'0 0.0
2015-Mar-02 00:33N 53°45' W 000°16'0 0.2
2015-Mar-01 23:34N 53°44' W 000°16'5 4.6
2015-Mar-01 22:33N 53°40' W 000°13'8 8.4
2015-Mar-01 21:34N 53°36' W 000°01'8 8.1
2015-Mar-01 20:33N 53°33' E 000°12'7 7.4
2015-Mar-01 19:34N 53°33' E 000°24'4 4.0
2015-Mar-01 18:33N 53°34' E 000°31'2 2.0
2015-Mar-01 17:33N 53°33' E 000°34'2 1.9
2015-Mar-01 16:33N 53°34' E 000°31'6 5.8
2015-Mar-01 15:32N 53°34' E 000°41'147 6.4
2015-Feb-28 16:30N 54°04' E 004°45'6 5.9
2015-Feb-28 15:32N 54°05' E 004°55'6 6.2
2015-Feb-28 14:33N 54°06' E 005°05'6 6.5
2015-Feb-28 13:34N 54°07' E 005°16'7 7.3
2015-Feb-28 12:33N 54°07' E 005°29'8 8.1
2015-Feb-28 11:32N 54°08' E 005°43'9 8.8
2015-Feb-28 10:29N 54°10' E 005°58'21 9.0
2015-Feb-28 08:12N 54°12' E 006°33'6 9.5
2015-Feb-28 07:32N 54°12' E 006°44'9 9.2
2015-Feb-28 06:33N 54°12' E 006°60'9 9.0
2015-Feb-28 05:33N 54°12' E 007°15'9 8.6
2015-Feb-28 04:33N 54°12' E 007°30'8 8.3
2015-Feb-28 03:33N 54°09' E 007°42'8 8.5
2015-Feb-28 02:33N 54°05' E 007°55'9 8.9
2015-Feb-28 01:34N 54°01' E 008°09'10 9.7
2015-Feb-28 00:34N 53°59' E 008°25'1211.8
2015-Feb-27 23:33N 53°53' E 008°42'1211.7
2015-Feb-27 22:33N 53°52' E 009°02'5 4.7
2015-Feb-27 21:33N 53°54' E 009°09'6 6.3
2015-Feb-27 20:33N 53°59' E 009°16'7 7.0
2015-Feb-27 19:33N 54°06' E 009°20'8 8.2
2015-Feb-27 18:33N 54°11' E 009°30'3 2.9
2015-Feb-27 17:33N 54°12' E 009°34'6 4.6
2015-Feb-27 16:20N 54°17' E 009°39'6 7.9
2015-Feb-27 15:33N 54°21' E 009°47'7 7.2
2015-Feb-27 14:33N 54°21' E 009°59'6 5.8
2015-Feb-27 13:33N 54°22' E 010°09'5 5.4
2015-Feb-27 12:33N 54°26' E 010°14'9 8.9
2015-Feb-27 11:33N 54°32' E 010°26'10 9.6
2015-Feb-27 10:33N 54°35' E 010°42'10 9.8
2015-Feb-27 09:33N 54°36' E 010°59'1110.6
2015-Feb-27 08:33N 54°34' E 011°17'1110.8
2015-Feb-27 07:34N 54°29' E 011°33'1010.1
2015-Feb-27 06:33N 54°27' E 011°50'1010.2
2015-Feb-27 05:33N 54°27' E 012°08'9 9.3
2015-Feb-27 04:33N 54°35' E 012°14'10 9.9
2015-Feb-27 03:31N 54°41' E 012°28'30 9.9
2015-Feb-27 00:33N 54°54' E 013°14'10 9.9
2015-Feb-26 23:33N 54°57' E 013°31'10 9.9
2015-Feb-26 22:33N 55°01' E 013°47'1010.0
2015-Feb-26 21:33N 55°04' E 014°03'10 9.8
2015-Feb-26 20:33N 55°12' E 014°14'1010.0
2015-Feb-26 19:33N 55°19' E 014°26'10 9.8
2015-Feb-26 18:33N 55°27' E 014°37'1010.2
2015-Feb-26 17:33N 55°32' E 014°53'1010.0
2015-Feb-26 16:33N 55°37' E 015°08'10 9.6
2015-Feb-26 15:33N 55°41' E 015°23'1010.0
2015-Feb-26 14:30N 55°47' E 015°38'12 9.7
2015-Feb-26 13:15N 55°53' E 015°57'91 9.4
2015-Feb-26 03:31N 57°10' E 017°26'10 9.8
2015-Feb-26 02:29N 57°19' E 017°33'  

Dump ship's entire track history